Terminal Aerodrome Forecast
Issued by NWS

Home | Current Version | Previous Version | Text Only | Print | Product List | Glossary Off
Versions: 1 2 3 4 5 6 7 8 9 10 11 12 13 14 15 16 17 18 19 20 21

000
FTUS41 KCLE 221100
TAFFDY
TAF
KFDY 221130Z 2212/2312 09006KT 5SM BR BKN250
     FM221400 12005KT 6SM HZ SCT045 BKN120
     FM221600 12007KT P6SM OVC045
     FM222000 12007KT P6SM OVC015
     FM230200 12008KT 5SM BR VCSH OVC015
     FM230300 11012KT 4SM -RA BR OVC015
     FM230700 14015G25KT 2SM -RA BR OVC007=

USA.gov is the U.S. government's official web portal to all federal, state and local government web resources and services.